In Rescue
 
Open Full Screen Window  High Contrast Mode
Wind Gusting 00 knots
04
September 21, 2020 9:50 PM PDT
Weather Information
Wind Direction
  320 °
Wind Speed
  04 kt (5 mph)
Wind Gust
  00 kt (0 mph)
Altimeter
29.98 in
Visibility
7 SM
Temperature
16° C
61° F
Dewpoint
14° C
57° F
Humidity
88%
1hr Rain Fall
00.00 in.
24hr Rain Fall
00.00 in.
Sky Condition
Overcast @ 1,000 ft
MVFR

METAR KHAF 220450Z AUTO 32004KT 7SM OVC010 16/14 A2998 RMK AO2

FAA Disclaimer: The data displayed is for advisory purposes only and is not to be used for flight planning or operations.